createdAt,value
2023-12-05T00:00:43.150Z,11.77
2023-12-05T00:03:11.486Z,12.27
2023-12-05T00:05:39.444Z,11.40
2023-12-05T00:08:07.363Z,11.80
2023-12-05T00:10:35.376Z,12.43
2023-12-05T00:13:04.731Z,11.03
2023-12-05T00:15:32.676Z,12.13
2023-12-05T00:18:02.070Z,11.70
2023-12-05T00:20:30.634Z,12.00
2023-12-05T00:22:58.579Z,11.57
2023-12-05T00:25:26.490Z,12.53
2023-12-05T00:27:54.408Z,13.70
2023-12-05T00:30:22.509Z,12.90
2023-12-05T00:32:50.910Z,12.43
2023-12-05T00:35:21.055Z,12.37
2023-12-05T00:37:48.995Z,11.60
2023-12-05T00:40:17.511Z,11.27
2023-12-05T00:42:45.456Z,11.83
2023-12-05T00:45:15.991Z,12.87
2023-12-05T00:47:44.048Z,12.90
2023-12-05T00:50:11.986Z,12.47
2023-12-05T00:52:41.238Z,12.70
2023-12-05T00:55:09.312Z,12.17
2023-12-05T00:57:37.332Z,12.70
2023-12-05T01:00:07.017Z,13.17
2023-12-05T01:02:34.934Z,12.70
2023-12-05T01:05:03.764Z,14.33
2023-12-05T01:07:32.356Z,12.73
2023-12-05T01:10:01.693Z,13.33
2023-12-05T01:12:29.717Z,13.20
2023-12-05T01:14:57.749Z,13.50
2023-12-05T01:17:25.721Z,13.53
2023-12-05T01:19:53.711Z,13.27
2023-12-05T01:22:21.650Z,12.10
2023-12-05T01:24:55.680Z,12.30
2023-12-05T01:27:25.052Z,12.83
2023-12-05T01:29:53.231Z,11.90
2023-12-05T01:32:21.189Z,12.43
2023-12-05T01:34:49.316Z,13.37
2023-12-05T01:37:17.366Z,12.90
2023-12-05T01:39:45.443Z,12.70
2023-12-05T01:42:13.668Z,14.57
2023-12-05T01:44:43.376Z,13.03
2023-12-05T01:47:12.510Z,13.23
2023-12-05T01:49:42.029Z,12.70
2023-12-05T01:52:10.260Z,12.93
2023-12-05T01:54:38.565Z,12.70
2023-12-05T01:57:08.496Z,13.33
2023-12-05T01:59:36.586Z,13.53
2023-12-05T02:02:06.251Z,12.87
2023-12-05T02:04:35.663Z,12.67
2023-12-05T02:07:05.567Z,13.30
2023-12-05T02:09:34.334Z,15.47
2023-12-05T02:12:02.380Z,12.53
2023-12-05T02:14:33.192Z,12.73
2023-12-05T02:17:11.461Z,13.50
2023-12-05T02:19:46.948Z,12.30
2023-12-05T02:22:40.978Z,12.07
2023-12-05T02:25:18.507Z,12.77
2023-12-05T02:27:49.059Z,13.03
2023-12-05T02:30:17.757Z,11.80
2023-12-05T02:32:45.945Z,11.73
2023-12-05T02:35:15.091Z,12.17
2023-12-05T02:37:54.011Z,12.77
2023-12-05T02:40:28.468Z,11.60
2023-12-05T02:42:58.898Z,12.33
2023-12-05T02:45:29.042Z,13.40
2023-12-05T02:47:59.716Z,12.73
2023-12-05T02:50:28.643Z,13.47
2023-12-05T02:52:56.522Z,13.67
2023-12-05T02:55:25.187Z,13.27
2023-12-05T02:57:53.109Z,11.70
2023-12-05T03:00:22.498Z,13.33
2023-12-05T03:02:50.727Z,13.97
2023-12-05T03:05:19.980Z,14.33
2023-12-05T03:07:47.939Z,13.40
2023-12-05T03:10:16.416Z,14.93
2023-12-05T03:12:44.390Z,14.60
2023-12-05T03:15:12.622Z,13.10
2023-12-05T03:17:41.945Z,15.00
2023-12-05T03:20:10.825Z,15.33
2023-12-05T03:22:38.766Z,13.73
2023-12-05T03:25:07.650Z,13.20
2023-12-05T03:27:35.564Z,13.10
2023-12-05T03:30:04.157Z,13.73
2023-12-05T03:32:32.377Z,14.33
2023-12-05T03:35:01.639Z,13.97
2023-12-05T03:37:29.622Z,15.10
2023-12-05T03:39:57.662Z,13.10
2023-12-05T03:42:25.553Z,15.53
2023-12-05T03:44:53.426Z,16.03
2023-12-05T03:47:21.275Z,15.13
2023-12-05T03:49:49.561Z,13.30
2023-12-05T03:52:18.791Z,14.53
2023-12-05T03:54:46.637Z,14.17
2023-12-05T03:57:14.894Z,14.30
2023-12-05T03:59:42.848Z,13.97
2023-12-05T04:02:10.839Z,15.47
2023-12-05T04:04:38.886Z,14.40
2023-12-05T04:07:06.996Z,13.90
2023-12-05T04:09:36.306Z,13.10
2023-12-05T04:12:04.995Z,14.67
2023-12-05T04:14:32.971Z,13.23
2023-12-05T04:17:00.883Z,18.27
2023-12-05T04:19:29.032Z,17.77
2023-12-05T04:21:57.949Z,14.77
2023-12-05T04:24:25.981Z,14.43
2023-12-05T04:26:55.200Z,16.10
2023-12-05T04:29:23.043Z,14.03
2023-12-05T04:31:51.278Z,15.70
2023-12-05T04:34:19.214Z,13.47
2023-12-05T04:36:47.290Z,15.77
2023-12-05T04:39:15.240Z,16.03
2023-12-05T04:41:43.126Z,17.47
2023-12-05T04:44:12.488Z,17.00
2023-12-05T04:46:40.443Z,15.23
2023-12-05T04:49:08.696Z,18.60
2023-12-05T04:51:36.714Z,17.93
2023-12-05T04:54:05.419Z,18.83
2023-12-05T04:56:33.389Z,17.37
2023-12-05T04:59:01.232Z,16.03
2023-12-05T05:01:30.799Z,16.50
2023-12-05T05:04:02.470Z,17.37
2023-12-05T05:06:32.424Z,18.33
2023-12-05T05:09:00.339Z,16.87
2023-12-05T05:11:28.926Z,15.07
2023-12-05T05:13:58.857Z,18.37
2023-12-05T05:16:27.937Z,17.57
2023-12-05T05:18:57.261Z,17.40
2023-12-05T05:21:25.839Z,17.33
2023-12-05T05:23:53.719Z,16.33
2023-12-05T05:26:21.919Z,15.50
2023-12-05T05:28:49.804Z,16.23
2023-12-05T05:31:17.923Z,18.37
2023-12-05T05:33:45.852Z,17.13
2023-12-05T05:36:16.934Z,16.53
2023-12-05T05:38:44.938Z,16.17
2023-12-05T05:41:12.926Z,16.63
2023-12-05T05:43:41.391Z,16.97
2023-12-05T05:46:09.648Z,16.83
2023-12-05T05:48:37.557Z,15.73
2023-12-05T05:51:07.563Z,15.83
2023-12-05T05:53:36.807Z,17.87
2023-12-05T05:56:05.037Z,16.73
2023-12-05T05:58:32.930Z,20.93
2023-12-05T06:01:00.843Z,18.30
2023-12-05T06:03:32.055Z,19.10
2023-12-05T06:06:00.685Z,18.13
2023-12-05T06:08:28.886Z,17.97
2023-12-05T06:10:58.629Z,16.63
2023-12-05T06:13:26.712Z,18.10
2023-12-05T06:15:54.780Z,19.10
2023-12-05T06:18:23.325Z,18.73
2023-12-05T06:20:53.070Z,19.33
2023-12-05T06:23:21.072Z,19.17
2023-12-05T06:25:48.923Z,21.17
2023-12-05T06:28:18.346Z,19.23
2023-12-05T06:30:46.319Z,18.27
2023-12-05T06:33:14.889Z,19.00
2023-12-05T06:35:42.900Z,17.47
2023-12-05T06:38:10.793Z,17.37
2023-12-05T06:40:38.611Z,20.13
2023-12-05T06:43:06.469Z,20.37
2023-12-05T06:45:36.769Z,19.90
2023-12-05T06:48:05.839Z,18.13
2023-12-05T06:50:34.054Z,17.43
2023-12-05T06:53:03.280Z,18.77
2023-12-05T06:55:31.476Z,18.17
2023-12-05T06:57:59.564Z,16.70
2023-12-05T07:00:27.548Z,20.30
2023-12-05T07:02:56.866Z,19.97
2023-12-05T07:05:25.010Z,17.47
2023-12-05T07:07:53.150Z,18.87
2023-12-05T07:10:21.107Z,18.07
2023-12-05T07:12:49.337Z,20.40
2023-12-05T07:15:17.608Z,20.60
2023-12-05T07:17:45.667Z,18.93
2023-12-05T07:20:15.621Z,17.90
2023-12-05T07:22:44.423Z,20.27
2023-12-05T07:25:12.357Z,19.37
2023-12-05T07:27:40.499Z,17.30
2023-12-05T07:30:09.997Z,16.47
2023-12-05T07:32:38.288Z,18.53
2023-12-05T07:35:07.230Z,16.77
2023-12-05T07:37:36.635Z,17.57
2023-12-05T07:40:06.844Z,16.73
2023-12-05T07:42:34.848Z,18.00
2023-12-05T07:45:05.663Z,18.07
2023-12-05T07:47:33.550Z,19.70
2023-12-05T07:50:01.563Z,18.37
2023-12-05T07:52:29.629Z,18.53
2023-12-05T07:54:59.254Z,16.63
2023-12-05T07:57:27.701Z,20.53
2023-12-05T07:59:55.583Z,19.70
2023-12-05T08:02:34.959Z,18.27
2023-12-05T08:05:02.921Z,15.40
2023-12-05T08:07:30.903Z,16.00
2023-12-05T08:10:00.192Z,14.73
2023-12-05T08:12:28.144Z,17.40
2023-12-05T08:14:56.027Z,15.70
2023-12-05T08:17:24.104Z,14.93
2023-12-05T08:19:55.278Z,15.27
2023-12-05T08:22:23.256Z,16.50
2023-12-05T08:24:52.416Z,13.93
2023-12-05T08:27:21.870Z,15.03
2023-12-05T08:29:49.737Z,17.47
2023-12-05T08:32:17.647Z,15.37
2023-12-05T08:34:45.934Z,18.50
2023-12-05T08:37:13.911Z,17.10
2023-12-05T08:39:42.765Z,17.67
2023-12-05T08:42:10.682Z,22.17
2023-12-05T08:44:40.084Z,14.57
2023-12-05T08:47:07.979Z,16.67
2023-12-05T08:49:35.957Z,14.30
2023-12-05T08:52:04.411Z,15.93
2023-12-05T08:54:32.301Z,16.73
2023-12-05T08:57:00.218Z,15.60
2023-12-05T08:59:28.085Z,16.17
2023-12-05T09:01:57.561Z,18.03
2023-12-05T09:04:25.681Z,16.47
2023-12-05T09:06:53.781Z,14.43
2023-12-05T09:09:21.796Z,15.23
2023-12-05T09:11:49.801Z,14.50
2023-12-05T09:14:17.709Z,15.50
2023-12-05T09:16:45.620Z,16.03
2023-12-05T09:19:14.912Z,15.87
2023-12-05T09:21:43.018Z,15.10
2023-12-05T09:24:11.082Z,15.60
2023-12-05T09:26:39.039Z,14.17
2023-12-05T09:29:06.903Z,14.00
2023-12-05T09:31:34.770Z,14.67
2023-12-05T09:34:04.715Z,14.60
2023-12-05T09:36:33.973Z,14.07
2023-12-05T09:39:01.815Z,12.50
2023-12-05T09:41:30.101Z,16.47
2023-12-05T09:44:01.881Z,13.20
2023-12-05T09:46:37.341Z,15.57
2023-12-05T09:49:09.057Z,14.67
2023-12-05T09:51:38.600Z,15.93
2023-12-05T09:54:06.575Z,17.10
2023-12-05T09:56:34.724Z,15.23
2023-12-05T09:59:04.607Z,16.27
2023-12-05T10:01:36.203Z,15.67
2023-12-05T10:04:06.957Z,17.13
2023-12-05T10:06:37.274Z,16.13
2023-12-05T10:09:09.856Z,17.13
2023-12-05T10:11:38.825Z,16.60
2023-12-05T10:14:07.476Z,18.40
2023-12-05T10:16:36.162Z,21.47
2023-12-05T10:19:04.341Z,17.83
2023-12-05T10:21:32.483Z,20.70
2023-12-05T10:24:01.208Z,19.00
2023-12-05T10:26:30.877Z,21.87
2023-12-05T10:28:58.971Z,22.70
2023-12-05T10:31:27.182Z,21.93
2023-12-05T10:34:06.222Z,20.43
2023-12-05T10:36:34.310Z,20.63
2023-12-05T10:39:03.959Z,20.77
2023-12-05T10:41:33.996Z,25.37
2023-12-05T10:44:02.707Z,19.63
2023-12-05T10:46:30.778Z,21.13
2023-12-05T10:48:58.898Z,20.30
2023-12-05T10:51:28.217Z,21.73
2023-12-05T10:53:57.767Z,22.03
2023-12-05T10:56:26.013Z,21.27
2023-12-05T10:58:55.639Z,20.33
2023-12-05T11:01:23.798Z,22.57
2023-12-05T11:03:53.289Z,20.63
2023-12-05T11:06:22.476Z,21.10
2023-12-05T11:08:50.783Z,22.10
2023-12-05T11:11:19.797Z,22.20
2023-12-05T11:13:49.425Z,21.33
2023-12-05T11:16:25.473Z,22.60
2023-12-05T11:18:59.740Z,22.47
2023-12-05T11:21:44.519Z,24.57
2023-12-05T11:24:27.232Z,22.33
2023-12-05T11:27:22.707Z,23.00
2023-12-05T11:30:08.650Z,20.37
2023-12-05T11:32:46.721Z,20.13
2023-12-05T11:35:22.738Z,19.13
2023-12-05T11:38:06.821Z,22.03
2023-12-05T11:40:34.896Z,21.53
2023-12-05T11:43:06.933Z,21.13
2023-12-05T11:45:37.175Z,21.57
2023-12-05T11:48:08.705Z,18.70
2023-12-05T11:50:42.478Z,18.57
2023-12-05T11:53:11.314Z,19.73
2023-12-05T11:55:42.729Z,19.37
2023-12-05T11:58:32.199Z,18.40
2023-12-05T12:01:05.021Z,18.90
2023-12-05T12:03:50.946Z,17.53
2023-12-05T12:06:20.111Z,20.23
2023-12-05T12:08:50.056Z,23.20
2023-12-05T12:11:18.090Z,18.53
2023-12-05T12:13:46.126Z,22.07
2023-12-05T12:16:15.712Z,19.30
2023-12-05T12:18:50.847Z,20.87
2023-12-05T12:21:29.431Z,20.40
2023-12-05T12:23:59.283Z,20.17
2023-12-05T12:26:28.646Z,20.93
2023-12-05T12:28:57.429Z,21.50
2023-12-05T12:31:27.971Z,23.27
2023-12-05T12:33:58.212Z,21.80
2023-12-05T12:36:27.824Z,19.43
2023-12-05T12:38:57.244Z,21.80
2023-12-05T12:41:25.742Z,21.13
2023-12-05T12:43:54.670Z,19.43
2023-12-05T12:46:22.579Z,23.03
2023-12-05T12:48:52.853Z,25.13
2023-12-05T12:51:20.961Z,23.33
2023-12-05T12:53:50.656Z,21.57
2023-12-05T12:56:19.114Z,19.30
2023-12-05T12:58:48.632Z,19.13
2023-12-05T13:01:16.713Z,19.40
2023-12-05T13:03:45.742Z,19.10
2023-12-05T13:06:14.016Z,20.70
2023-12-05T13:08:42.108Z,20.70
2023-12-05T13:11:11.528Z,21.13
2023-12-05T13:13:40.073Z,22.37
2023-12-05T13:16:08.684Z,19.80
2023-12-05T13:18:44.342Z,23.27
2023-12-05T13:21:13.456Z,21.63
2023-12-05T13:23:43.121Z,21.17
2023-12-05T13:26:12.532Z,23.53
2023-12-05T13:28:40.847Z,21.00
2023-12-05T13:31:08.778Z,22.80
2023-12-05T13:33:36.803Z,22.37
2023-12-05T13:36:05.308Z,22.60
2023-12-05T13:38:33.394Z,23.10
2023-12-05T13:41:01.305Z,21.90
2023-12-05T13:43:30.772Z,22.13
2023-12-05T13:45:58.735Z,22.70
2023-12-05T13:48:26.793Z,24.27
2023-12-05T13:50:54.734Z,23.23
2023-12-05T13:53:24.567Z,23.73
2023-12-05T13:55:52.642Z,21.93
2023-12-05T13:58:20.577Z,22.10
2023-12-05T14:00:50.078Z,22.23
2023-12-05T14:03:22.168Z,22.47
2023-12-05T14:05:54.366Z,21.60
2023-12-05T14:08:22.324Z,26.43
2023-12-05T14:10:51.380Z,23.63
2023-12-05T14:13:19.351Z,22.13
2023-12-05T14:15:47.341Z,21.90
2023-12-05T14:18:16.737Z,21.83
2023-12-05T14:20:44.596Z,22.67
2023-12-05T14:23:12.687Z,22.37
2023-12-05T14:25:40.545Z,24.83
2023-12-05T14:28:08.490Z,24.70
2023-12-05T14:30:37.461Z,24.73
2023-12-05T14:33:05.462Z,25.73
2023-12-05T14:35:34.825Z,22.63
2023-12-05T14:38:03.452Z,22.90
2023-12-05T14:40:31.851Z,23.53
2023-12-05T14:43:00.814Z,24.53
2023-12-05T14:45:28.768Z,24.07
2023-12-05T14:47:56.787Z,25.23
2023-12-05T14:50:24.819Z,24.73
2023-12-05T14:52:54.185Z,26.07
2023-12-05T14:55:22.305Z,24.33
2023-12-05T14:57:50.874Z,26.70
2023-12-05T15:00:20.422Z,26.77
2023-12-05T15:02:48.430Z,26.93
2023-12-05T15:05:17.929Z,24.77
2023-12-05T15:07:46.162Z,27.77
2023-12-05T15:10:17.593Z,28.30
2023-12-05T15:12:46.213Z,26.03
2023-12-05T15:15:14.661Z,24.17
2023-12-05T15:17:42.656Z,27.47
2023-12-05T15:20:20.150Z,24.10
2023-12-05T15:22:52.282Z,28.00
2023-12-05T15:25:21.792Z,27.07
2023-12-05T15:27:49.842Z,23.77
2023-12-05T15:30:17.869Z,26.43
2023-12-05T15:32:51.514Z,25.40
2023-12-05T15:35:20.360Z,27.77
2023-12-05T15:37:48.305Z,29.03
2023-12-05T15:40:17.280Z,28.37
2023-12-05T15:42:49.048Z,29.93
2023-12-05T15:45:19.056Z,25.07
2023-12-05T15:47:47.011Z,28.23
2023-12-05T15:50:18.112Z,26.47
2023-12-05T15:52:46.959Z,29.97
2023-12-05T15:55:14.870Z,29.13
2023-12-05T15:57:44.178Z,24.37
2023-12-05T16:00:14.954Z,25.23
2023-12-05T16:02:45.251Z,22.93
2023-12-05T16:05:15.171Z,22.90
2023-12-05T16:07:43.189Z,24.03
2023-12-05T16:10:12.221Z,25.07
2023-12-05T16:12:40.212Z,24.57
2023-12-05T16:15:09.101Z,22.50
2023-12-05T16:17:38.561Z,25.67
2023-12-05T16:20:07.164Z,24.40
2023-12-05T16:22:35.115Z,25.17
2023-12-05T16:25:04.053Z,24.33
2023-12-05T16:27:32.893Z,24.30
2023-12-05T16:30:01.106Z,24.83
2023-12-05T16:32:29.688Z,26.33
2023-12-05T16:34:59.156Z,25.87
2023-12-05T16:37:27.280Z,24.07
2023-12-05T16:39:55.213Z,25.10
2023-12-05T16:42:23.111Z,24.23
2023-12-05T16:44:51.081Z,23.80
2023-12-05T16:47:19.289Z,24.83
2023-12-05T16:49:47.502Z,21.67
2023-12-05T16:52:16.888Z,21.87
2023-12-05T16:54:44.906Z,22.50
2023-12-05T16:57:12.829Z,22.60
2023-12-05T16:59:40.838Z,22.67
2023-12-05T17:02:08.933Z,23.37
2023-12-05T17:04:37.130Z,25.27
2023-12-05T17:07:05.347Z,24.30
2023-12-05T17:09:34.735Z,21.00
2023-12-05T17:12:03.352Z,22.93
2023-12-05T17:14:32.986Z,26.53
2023-12-05T17:17:04.296Z,25.10
2023-12-05T17:19:32.387Z,24.07
2023-12-05T17:22:01.547Z,23.93
2023-12-05T17:24:29.692Z,23.03
2023-12-05T17:27:00.033Z,24.37
2023-12-05T17:29:29.268Z,24.07
2023-12-05T17:31:57.447Z,22.70
2023-12-05T17:34:25.539Z,26.23
2023-12-05T17:36:53.671Z,23.70
2023-12-05T17:39:21.618Z,25.63
2023-12-05T17:41:50.799Z,26.93
2023-12-05T17:44:20.082Z,25.53
2023-12-05T17:46:48.238Z,26.70
2023-12-05T17:49:16.671Z,26.70
2023-12-05T17:51:44.625Z,26.73
2023-12-05T17:54:13.771Z,26.80
2023-12-05T17:56:41.958Z,25.13
2023-12-05T17:59:10.050Z,26.23
2023-12-05T18:01:39.515Z,27.90
2023-12-05T18:04:07.598Z,27.70
2023-12-05T18:06:35.614Z,26.40
2023-12-05T18:09:03.916Z,28.27
2023-12-05T18:11:34.792Z,26.03
2023-12-05T18:14:02.701Z,29.67
2023-12-05T18:16:30.783Z,26.07
2023-12-05T18:19:03.329Z,25.93
2023-12-05T18:21:31.715Z,27.10
2023-12-05T18:23:59.810Z,30.03
2023-12-05T18:26:27.982Z,30.90
2023-12-05T18:28:56.090Z,29.97
2023-12-05T18:31:24.262Z,25.40
2023-12-05T18:33:53.183Z,27.73
2023-12-05T18:36:22.894Z,30.27
2023-12-05T18:38:51.047Z,27.40
2023-12-05T18:41:19.022Z,28.10
2023-12-05T18:43:47.548Z,26.10
2023-12-05T18:46:15.936Z,27.50
2023-12-05T18:48:44.034Z,27.20
2023-12-05T18:51:12.236Z,23.73
2023-12-05T18:53:43.648Z,26.17
2023-12-05T18:56:12.486Z,29.07
2023-12-05T18:58:40.555Z,28.03
2023-12-05T19:01:08.715Z,27.90
2023-12-05T19:03:36.764Z,26.23
2023-12-05T19:06:08.103Z,25.17
2023-12-05T19:08:36.058Z,27.67
2023-12-05T19:11:06.342Z,26.97
2023-12-05T19:13:34.317Z,28.43
2023-12-05T19:16:04.442Z,27.97
2023-12-05T19:18:32.521Z,23.90
2023-12-05T19:21:00.505Z,28.70
2023-12-05T19:23:28.460Z,24.13
2023-12-05T19:25:56.442Z,27.90
2023-12-05T19:28:27.421Z,26.83
2023-12-05T19:30:55.339Z,25.67
2023-12-05T19:33:23.330Z,26.20
2023-12-05T19:35:51.773Z,26.47
2023-12-05T19:38:20.548Z,26.83
2023-12-05T19:40:51.012Z,26.27
2023-12-05T19:43:19.654Z,26.97
2023-12-05T19:45:48.956Z,27.47
2023-12-05T19:48:18.846Z,30.70
2023-12-05T19:50:47.436Z,26.40
2023-12-05T19:53:15.970Z,25.10
2023-12-05T19:55:48.709Z,27.47
2023-12-05T19:58:16.629Z,29.03
2023-12-05T20:00:45.058Z,26.07
2023-12-05T20:03:15.844Z,25.57
2023-12-05T20:05:43.726Z,26.87
2023-12-05T20:08:12.206Z,27.77
2023-12-05T20:10:40.145Z,25.30
2023-12-05T20:13:08.253Z,24.20
2023-12-05T20:15:36.394Z,27.23
2023-12-05T20:18:04.572Z,24.50
2023-12-05T20:20:33.996Z,24.03
2023-12-05T20:23:02.030Z,28.07
2023-12-05T20:25:29.961Z,24.80
2023-12-05T20:27:57.959Z,25.97
2023-12-05T20:30:27.128Z,25.10
2023-12-05T20:32:55.075Z,26.70
2023-12-05T20:35:23.176Z,26.27
2023-12-05T20:37:52.471Z,31.63
2023-12-05T20:40:20.811Z,30.27
2023-12-05T20:42:48.791Z,28.03
2023-12-05T20:45:16.791Z,27.10
2023-12-05T20:47:44.937Z,27.33
2023-12-05T20:50:12.796Z,26.30
2023-12-05T20:52:41.708Z,28.37
2023-12-05T20:55:11.280Z,26.33
2023-12-05T20:57:39.281Z,26.70
2023-12-05T21:00:08.652Z,25.33
2023-12-05T21:02:36.621Z,26.73
2023-12-05T21:05:05.000Z,27.60
2023-12-05T21:07:33.449Z,25.90
2023-12-05T21:10:01.896Z,25.17
2023-12-05T21:12:31.258Z,23.67
2023-12-05T21:14:59.149Z,28.33
2023-12-05T21:17:28.684Z,25.63
2023-12-05T21:19:56.722Z,23.73
2023-12-05T21:22:24.644Z,25.07
2023-12-05T21:24:52.601Z,22.73
2023-12-05T21:27:20.900Z,24.77
2023-12-05T21:29:50.657Z,22.50
2023-12-05T21:32:18.691Z,24.17
2023-12-05T21:34:46.709Z,23.03
2023-12-05T21:37:15.937Z,22.93
2023-12-05T21:39:43.953Z,22.10
2023-12-05T21:42:11.984Z,22.73
2023-12-05T21:44:43.106Z,21.97
2023-12-05T21:47:13.749Z,21.60
2023-12-05T21:49:41.878Z,22.07
2023-12-05T21:52:10.150Z,22.30
2023-12-05T21:54:38.134Z,20.67
2023-12-05T21:57:06.440Z,23.07
2023-12-05T21:59:34.364Z,21.53
2023-12-05T22:02:02.322Z,20.73
2023-12-05T22:04:33.637Z,20.67
2023-12-05T22:07:01.832Z,21.37
2023-12-05T22:09:29.932Z,23.47
2023-12-05T22:11:58.164Z,23.17
2023-12-05T22:14:26.147Z,21.57
2023-12-05T22:16:54.077Z,21.73
2023-12-05T22:19:22.179Z,20.43
2023-12-05T22:21:52.609Z,22.53
2023-12-05T22:24:29.453Z,23.47
2023-12-05T22:27:00.634Z,20.90
2023-12-05T22:29:28.726Z,21.60
2023-12-05T22:31:57.819Z,22.13
2023-12-05T22:34:26.063Z,19.17
2023-12-05T22:36:55.799Z,23.80
2023-12-05T22:39:23.759Z,21.43
2023-12-05T22:41:52.319Z,21.00
2023-12-05T22:44:20.455Z,23.57
2023-12-05T22:46:48.313Z,22.10
2023-12-05T22:49:16.360Z,21.20
2023-12-05T22:51:44.479Z,23.40
2023-12-05T22:54:14.032Z,19.90
2023-12-05T22:56:42.056Z,24.17
2023-12-05T22:59:09.962Z,23.30
2023-12-05T23:01:38.210Z,21.10
2023-12-05T23:04:06.384Z,22.37
2023-12-05T23:06:34.346Z,24.10
2023-12-05T23:09:02.305Z,22.33
2023-12-05T23:11:31.907Z,26.27
2023-12-05T23:13:59.930Z,23.43
2023-12-05T23:16:27.818Z,24.23
2023-12-05T23:18:55.785Z,21.10
2023-12-05T23:21:23.764Z,19.63
2023-12-05T23:23:52.385Z,24.40
2023-12-05T23:26:20.281Z,24.97
2023-12-05T23:28:50.191Z,24.83
2023-12-05T23:31:18.245Z,21.20
2023-12-05T23:33:46.375Z,22.53
2023-12-05T23:36:15.764Z,22.47
2023-12-05T23:38:43.788Z,24.00
2023-12-05T23:41:12.640Z,28.77
2023-12-05T23:43:40.776Z,22.20
2023-12-05T23:46:10.127Z,22.13
2023-12-05T23:48:38.191Z,22.23
2023-12-05T23:51:06.934Z,22.17
2023-12-05T23:53:35.167Z,25.97
2023-12-05T23:56:03.005Z,24.23
2023-12-05T23:58:31.187Z,23.53
